Aviation Digital Data Service (ADDS)

Output produced by METARs form (0203 UTC 22 April 2019)
found at http://www.aviationweather.gov/metar/data/
 
METAR text: UGKO 220200Z VRB03KT 9999 SCT028 BKN045 05/04 Q1016 NOSIG
Conditions at: UGKO (KOPITNARI , GE) observed 0200 UTC 22 April 2019
Temperature: 5.0°C (41°F)
Dewpoint: 4.0°C (39°F) [RH = 93%]
Pressure (altimeter): 30.00 inches Hg (1016.0 mb)
Winds: variable direction winds at 3 MPH (3 knots; 1.5 m/s)
Visibility: 6 or more miles (10+ km)
Ceiling: 4500 feet AGL
Clouds: scattered clouds at 2800 feet AGL
broken clouds at 4500 feet AGL
Weather: no significant weather observed at this time

METAR text: UGKO 220130Z VRB03KT 9999 SCT011 BKN041 05/04 Q1016 NOSIG
Conditions at: UGKO (KOPITNARI , GE) observed 0130 UTC 22 April 2019
Temperature: 5.0°C (41°F)
Dewpoint: 4.0°C (39°F) [RH = 93%]
Pressure (altimeter): 30.00 inches Hg (1016.0 mb)
Winds: variable direction winds at 3 MPH (3 knots; 1.5 m/s)
Visibility: 6 or more miles (10+ km)
Ceiling: 4100 feet AGL
Clouds: scattered clouds at 1100 feet AGL
broken clouds at 4100 feet AGL
Weather: no significant weather observed at this time

METAR text: UGKO 220100Z VRB02KT 9999 SCT011 BKN041 05/04 Q1016 NOSIG
Conditions at: UGKO (KOPITNARI , GE) observed 0100 UTC 22 April 2019
Temperature: 5.0°C (41°F)
Dewpoint: 4.0°C (39°F) [RH = 93%]
Pressure (altimeter): 30.00 inches Hg (1016.0 mb)
Winds: variable direction winds at 2 MPH (2 knots; 1.0 m/s)
Visibility: 6 or more miles (10+ km)
Ceiling: 4100 feet AGL
Clouds: scattered clouds at 1100 feet AGL
broken clouds at 4100 feet AGL
Weather: no significant weather observed at this time

METAR text: UGKO 220030Z VRB02KT 9999 SCT018 BKN045 05/04 Q1016 NOSIG
Conditions at: UGKO (KOPITNARI , GE) observed 0030 UTC 22 April 2019
Temperature: 5.0°C (41°F)
Dewpoint: 4.0°C (39°F) [RH = 93%]
Pressure (altimeter): 30.00 inches Hg (1016.0 mb)
Winds: variable direction winds at 2 MPH (2 knots; 1.0 m/s)
Visibility: 6 or more miles (10+ km)
Ceiling: 4500 feet AGL
Clouds: scattered clouds at 1800 feet AGL
broken clouds at 4500 feet AGL
Weather: no significant weather observed at this time

METAR text: UGKO 220000Z VRB02KT 9999 SCT018 BKN044 06/05 Q1016 NOSIG
Conditions at: UGKO (KOPITNARI , GE) observed 0000 UTC 22 April 2019
Temperature: 6.0°C (43°F)
Dewpoint: 5.0°C (41°F) [RH = 93%]
Pressure (altimeter): 30.00 inches Hg (1016.0 mb)
Winds: variable direction winds at 2 MPH (2 knots; 1.0 m/s)
Visibility: 6 or more miles (10+ km)
Ceiling: 4400 feet AGL
Clouds: scattered clouds at 1800 feet AGL
broken clouds at 4400 feet AGL
Weather: no significant weather observed at this time

METAR text: UGKO 212330Z AUTO 07003KT 350V130 9999 FEW016/// 05/05 Q1017 NOSIG
Conditions at: UGKO (KOPITNARI , GE) observed 2330 UTC 21 April 2019
Temperature: 5.0°C (41°F)
Dewpoint: 5.0°C (41°F) [RH = 100%]
Pressure (altimeter): 30.03 inches Hg (1017.0 mb)
Winds: from the ENE (70 degrees) at 3 MPH (3 knots; 1.5 m/s)
Visibility: 6 or more miles (10+ km)
Ceiling: at least 12,000 feet AGL
Clouds: few clouds at 1600 feet AGL
Weather: no significant weather observed at this time

METAR text: UGKO 212300Z VRB04KT 9999 SCT016 BKN049 06/05 Q1017 NOSIG
Conditions at: UGKO (KOPITNARI , GE) observed 2300 UTC 21 April 2019
Temperature: 6.0°C (43°F)
Dewpoint: 5.0°C (41°F) [RH = 93%]
Pressure (altimeter): 30.03 inches Hg (1017.0 mb)
Winds: variable direction winds at 5 MPH (4 knots; 2.1 m/s)
Visibility: 6 or more miles (10+ km)
Ceiling: 4900 feet AGL
Clouds: scattered clouds at 1600 feet AGL
broken clouds at 4900 feet AGL
Weather: no significant weather observed at this time

METAR text: UGKO 212230Z VRB02KT 9999 SCT016 BKN047 06/05 Q1017 NOSIG
Conditions at: UGKO (KOPITNARI , GE) observed 2230 UTC 21 April 2019
Temperature: 6.0°C (43°F)
Dewpoint: 5.0°C (41°F) [RH = 93%]
Pressure (altimeter): 30.03 inches Hg (1017.0 mb)
Winds: variable direction winds at 2 MPH (2 knots; 1.0 m/s)
Visibility: 6 or more miles (10+ km)
Ceiling: 4700 feet AGL
Clouds: scattered clouds at 1600 feet AGL
broken clouds at 4700 feet AGL
Weather: no significant weather observed at this time

METAR text: UGKO 212200Z VRB02KT 9999 SCT016 BKN049 06/05 Q1017 NOSIG
Conditions at: UGKO (KOPITNARI , GE) observed 2200 UTC 21 April 2019
Temperature: 6.0°C (43°F)
Dewpoint: 5.0°C (41°F) [RH = 93%]
Pressure (altimeter): 30.03 inches Hg (1017.0 mb)
Winds: variable direction winds at 2 MPH (2 knots; 1.0 m/s)
Visibility: 6 or more miles (10+ km)
Ceiling: 4900 feet AGL
Clouds: scattered clouds at 1600 feet AGL
broken clouds at 4900 feet AGL
Weather: no significant weather observed at this time

METAR text: UGKO 212130Z VRB02KT 9999 SCT016 BKN049 06/05 Q1018 NOSIG
Conditions at: UGKO (KOPITNARI , GE) observed 2130 UTC 21 April 2019
Temperature: 6.0°C (43°F)
Dewpoint: 5.0°C (41°F) [RH = 93%]
Pressure (altimeter): 30.06 inches Hg (1018.0 mb)
Winds: variable direction winds at 2 MPH (2 knots; 1.0 m/s)
Visibility: 6 or more miles (10+ km)
Ceiling: 4900 feet AGL
Clouds: scattered clouds at 1600 feet AGL
broken clouds at 4900 feet AGL
Weather: no significant weather observed at this time

METAR text: UGKO 212100Z VRB03KT 9999 SCT016 BKN049 06/05 Q1018 NOSIG
Conditions at: UGKO (KOPITNARI , GE) observed 2100 UTC 21 April 2019
Temperature: 6.0°C (43°F)
Dewpoint: 5.0°C (41°F) [RH = 93%]
Pressure (altimeter): 30.06 inches Hg (1018.0 mb)
Winds: variable direction winds at 3 MPH (3 knots; 1.5 m/s)
Visibility: 6 or more miles (10+ km)
Ceiling: 4900 feet AGL
Clouds: scattered clouds at 1600 feet AGL
broken clouds at 4900 feet AGL
Weather: no significant weather observed at this time

METAR text: UGKO 212030Z VRB02KT 9999 SCT028 BKN048 06/05 Q1018 NOSIG
Conditions at: UGKO (KOPITNARI , GE) observed 2030 UTC 21 April 2019
Temperature: 6.0°C (43°F)
Dewpoint: 5.0°C (41°F) [RH = 93%]
Pressure (altimeter): 30.06 inches Hg (1018.0 mb)
Winds: variable direction winds at 2 MPH (2 knots; 1.0 m/s)
Visibility: 6 or more miles (10+ km)
Ceiling: 4800 feet AGL
Clouds: scattered clouds at 2800 feet AGL
broken clouds at 4800 feet AGL
Weather: no significant weather observed at this time

METAR text: UGKO 212000Z VRB02KT 9999 SCT028 BKN049 07/05 Q1017 R07/09//70 NOSIG
Conditions at: UGKO (KOPITNARI , GE) observed 2000 UTC 21 April 2019
Temperature: 7.0°C (45°F)
Dewpoint: 5.0°C (41°F) [RH = 87%]
Pressure (altimeter): 30.03 inches Hg (1017.0 mb)
Winds: variable direction winds at 2 MPH (2 knots; 1.0 m/s)
Visibility: 6 or more miles (10+ km)
Ceiling: 4900 feet AGL
Clouds: scattered clouds at 2800 feet AGL
broken clouds at 4900 feet AGL
Weather: no significant weather observed at this time

METAR text: UGKO 211930Z VRB04KT 9999 SCT027 BKN049 08/06 Q1017 NOSIG
Conditions at: UGKO (KOPITNARI , GE) observed 1930 UTC 21 April 2019
Temperature: 8.0°C (46°F)
Dewpoint: 6.0°C (43°F) [RH = 87%]
Pressure (altimeter): 30.03 inches Hg (1017.0 mb)
Winds: variable direction winds at 5 MPH (4 knots; 2.1 m/s)
Visibility: 6 or more miles (10+ km)
Ceiling: 4900 feet AGL
Clouds: scattered clouds at 2700 feet AGL
broken clouds at 4900 feet AGL
Weather: no significant weather observed at this time

METAR text: UGKO 211900Z VRB03KT 9999 SCT019 BKN042 08/06 Q1017 NOSIG
Conditions at: UGKO (KOPITNARI , GE) observed 1900 UTC 21 April 2019
Temperature: 8.0°C (46°F)
Dewpoint: 6.0°C (43°F) [RH = 87%]
Pressure (altimeter): 30.03 inches Hg (1017.0 mb)
Winds: variable direction winds at 3 MPH (3 knots; 1.5 m/s)
Visibility: 6 or more miles (10+ km)
Ceiling: 4200 feet AGL
Clouds: scattered clouds at 1900 feet AGL
broken clouds at 4200 feet AGL
Weather: no significant weather observed at this time

METAR text: UGKO 211830Z VRB02KT 9999 SCT018 BKN041 08/07 Q1017 NOSIG
Conditions at: UGKO (KOPITNARI , GE) observed 1830 UTC 21 April 2019
Temperature: 8.0°C (46°F)
Dewpoint: 7.0°C (45°F) [RH = 93%]
Pressure (altimeter): 30.03 inches Hg (1017.0 mb)
Winds: variable direction winds at 2 MPH (2 knots; 1.0 m/s)
Visibility: 6 or more miles (10+ km)
Ceiling: 4100 feet AGL
Clouds: scattered clouds at 1800 feet AGL
broken clouds at 4100 feet AGL
Weather: no significant weather observed at this time

METAR text: UGKO 211800Z VRB04KT 9999 SCT018 BKN044 08/07 Q1017 NOSIG
Conditions at: UGKO (KOPITNARI , GE) observed 1800 UTC 21 April 2019
Temperature: 8.0°C (46°F)
Dewpoint: 7.0°C (45°F) [RH = 93%]
Pressure (altimeter): 30.03 inches Hg (1017.0 mb)
Winds: variable direction winds at 5 MPH (4 knots; 2.1 m/s)
Visibility: 6 or more miles (10+ km)
Ceiling: 4400 feet AGL
Clouds: scattered clouds at 1800 feet AGL
broken clouds at 4400 feet AGL
Weather: no significant weather observed at this time

METAR text: UGKO 211730Z VRB03KT 9999 SCT025 BKN042 09/07 Q1017 NOSIG
Conditions at: UGKO (KOPITNARI , GE) observed 1730 UTC 21 April 2019
Temperature: 9.0°C (48°F)
Dewpoint: 7.0°C (45°F) [RH = 87%]
Pressure (altimeter): 30.03 inches Hg (1017.0 mb)
Winds: variable direction winds at 3 MPH (3 knots; 1.5 m/s)
Visibility: 6 or more miles (10+ km)
Ceiling: 4200 feet AGL
Clouds: scattered clouds at 2500 feet AGL
broken clouds at 4200 feet AGL
Weather: no significant weather observed at this time

METAR text: UGKO 211700Z VRB04KT 9999 SCT021 BKN044 09/07 Q1017 NOSIG
Conditions at: UGKO (KOPITNARI , GE) observed 1700 UTC 21 April 2019
Temperature: 9.0°C (48°F)
Dewpoint: 7.0°C (45°F) [RH = 87%]
Pressure (altimeter): 30.03 inches Hg (1017.0 mb)
Winds: variable direction winds at 5 MPH (4 knots; 2.1 m/s)
Visibility: 6 or more miles (10+ km)
Ceiling: 4400 feet AGL
Clouds: scattered clouds at 2100 feet AGL
broken clouds at 4400 feet AGL
Weather: no significant weather observed at this time

METAR text: UGKO 211630Z 27008KT 9999 SCT028 BKN047 09/07 Q1016 NOSIG
Conditions at: UGKO (KOPITNARI , GE) observed 1630 UTC 21 April 2019
Temperature: 9.0°C (48°F)
Dewpoint: 7.0°C (45°F) [RH = 87%]
Pressure (altimeter): 30.00 inches Hg (1016.0 mb)
Winds: from the W (270 degrees) at 9 MPH (8 knots; 4.1 m/s)
Visibility: 6 or more miles (10+ km)
Ceiling: 4700 feet AGL
Clouds: scattered clouds at 2800 feet AGL
broken clouds at 4700 feet AGL
Weather: no significant weather observed at this time

METAR text: UGKO 211600Z 27011KT 9999 SCT025 BKN042 09/07 Q1016 NOSIG
Conditions at: UGKO (KOPITNARI , GE) observed 1600 UTC 21 April 2019
Temperature: 9.0°C (48°F)
Dewpoint: 7.0°C (45°F) [RH = 87%]
Pressure (altimeter): 30.00 inches Hg (1016.0 mb)
Winds: from the W (270 degrees) at 13 MPH (11 knots; 5.7 m/s)
Visibility: 6 or more miles (10+ km)
Ceiling: 4200 feet AGL
Clouds: scattered clouds at 2500 feet AGL
broken clouds at 4200 feet AGL
Weather: no significant weather observed at this time

METAR text: UGKO 211530Z 26013KT 9999 SCT022 BKN044 10/07 Q1016 NOSIG
Conditions at: UGKO (KOPITNARI , GE) observed 1530 UTC 21 April 2019
Temperature: 10.0°C (50°F)
Dewpoint: 7.0°C (45°F) [RH = 82%]
Pressure (altimeter): 30.00 inches Hg (1016.0 mb)
Winds: from the W (260 degrees) at 15 MPH (13 knots; 6.7 m/s)
Visibility: 6 or more miles (10+ km)
Ceiling: 4400 feet AGL
Clouds: scattered clouds at 2200 feet AGL
broken clouds at 4400 feet AGL
Weather: no significant weather observed at this time

METAR text: UGKO 211500Z 25013KT 9999 SCT025 BKN045 10/07 Q1016 NOSIG
Conditions at: UGKO (KOPITNARI , GE) observed 1500 UTC 21 April 2019
Temperature: 10.0°C (50°F)
Dewpoint: 7.0°C (45°F) [RH = 82%]
Pressure (altimeter): 30.00 inches Hg (1016.0 mb)
Winds: from the WSW (250 degrees) at 15 MPH (13 knots; 6.7 m/s)
Visibility: 6 or more miles (10+ km)
Ceiling: 4500 feet AGL
Clouds: scattered clouds at 2500 feet AGL
broken clouds at 4500 feet AGL
Weather: no significant weather observed at this time

METAR text: UGKO 211430Z 25016KT 9999 SCT027 BKN049 11/07 Q1015 NOSIG
Conditions at: UGKO (KOPITNARI , GE) observed 1430 UTC 21 April 2019
Temperature: 11.0°C (52°F)
Dewpoint: 7.0°C (45°F) [RH = 76%]
Pressure (altimeter): 29.97 inches Hg (1015.0 mb)
Winds: from the WSW (250 degrees) at 18 MPH (16 knots; 8.2 m/s)
Visibility: 6 or more miles (10+ km)
Ceiling: 4900 feet AGL
Clouds: scattered clouds at 2700 feet AGL
broken clouds at 4900 feet AGL
Weather: no significant weather observed at this time

METAR text: UGKO 211400Z 25016KT 9999 SCT028 BKN042 11/07 Q1015 NOSIG
Conditions at: UGKO (KOPITNARI , GE) observed 1400 UTC 21 April 2019
Temperature: 11.0°C (52°F)
Dewpoint: 7.0°C (45°F) [RH = 76%]
Pressure (altimeter): 29.97 inches Hg (1015.0 mb)
Winds: from the WSW (250 degrees) at 18 MPH (16 knots; 8.2 m/s)
Visibility: 6 or more miles (10+ km)
Ceiling: 4200 feet AGL
Clouds: scattered clouds at 2800 feet AGL
broken clouds at 4200 feet AGL
Weather: no significant weather observed at this time

METAR text: UGKO 211330Z 26018KT 9999 SCT023 BKN046 13/07 Q1015 NOSIG
Conditions at: UGKO (KOPITNARI , GE) observed 1330 UTC 21 April 2019
Temperature: 13.0°C (55°F)
Dewpoint: 7.0°C (45°F) [RH = 67%]
Pressure (altimeter): 29.97 inches Hg (1015.0 mb)
Winds: from the W (260 degrees) at 21 MPH (18 knots; 9.3 m/s)
Visibility: 6 or more miles (10+ km)
Ceiling: 4600 feet AGL
Clouds: scattered clouds at 2300 feet AGL
broken clouds at 4600 feet AGL
Weather: no significant weather observed at this time

METAR text: UGKO 211300Z 26017KT 230V290 9999 SCT028 BKN047 13/07 Q1014 NOSIG
Conditions at: UGKO (KOPITNARI , GE) observed 1300 UTC 21 April 2019
Temperature: 13.0°C (55°F)
Dewpoint: 7.0°C (45°F) [RH = 67%]
Pressure (altimeter): 29.94 inches Hg (1014.0 mb)
Winds: from the W (260 degrees) at 20 MPH (17 knots; 8.7 m/s)
Visibility: 6 or more miles (10+ km)
Ceiling: 4700 feet AGL
Clouds: scattered clouds at 2800 feet AGL
broken clouds at 4700 feet AGL
Weather: no significant weather observed at this time

METAR text: UGKO 211230Z 26020KT 9999 SCT026 BKN049 14/07 Q1014 NOSIG
Conditions at: UGKO (KOPITNARI , GE) observed 1230 UTC 21 April 2019
Temperature: 14.0°C (57°F)
Dewpoint: 7.0°C (45°F) [RH = 63%]
Pressure (altimeter): 29.94 inches Hg (1014.0 mb)
Winds: from the W (260 degrees) at 23 MPH (20 knots; 10.3 m/s)
Visibility: 6 or more miles (10+ km)
Ceiling: 4900 feet AGL
Clouds: scattered clouds at 2600 feet AGL
broken clouds at 4900 feet AGL
Weather: no significant weather observed at this time

METAR text: UGKO 211200Z 26019KT 9999 SCT027 BKN047 14/08 Q1014 NOSIG
Conditions at: UGKO (KOPITNARI , GE) observed 1200 UTC 21 April 2019
Temperature: 14.0°C (57°F)
Dewpoint: 8.0°C (46°F) [RH = 67%]
Pressure (altimeter): 29.94 inches Hg (1014.0 mb)
Winds: from the W (260 degrees) at 22 MPH (19 knots; 9.8 m/s)
Visibility: 6 or more miles (10+ km)
Ceiling: 4700 feet AGL
Clouds: scattered clouds at 2700 feet AGL
broken clouds at 4700 feet AGL
Weather: no significant weather observed at this time

METAR text: UGKO 211130Z 28016KT 9999 SCT028 BKN048 14/08 Q1014 NOSIG
Conditions at: UGKO (KOPITNARI , GE) observed 1130 UTC 21 April 2019
Temperature: 14.0°C (57°F)
Dewpoint: 8.0°C (46°F) [RH = 67%]
Pressure (altimeter): 29.94 inches Hg (1014.0 mb)
Winds: from the W (280 degrees) at 18 MPH (16 knots; 8.2 m/s)
Visibility: 6 or more miles (10+ km)
Ceiling: 4800 feet AGL
Clouds: scattered clouds at 2800 feet AGL
broken clouds at 4800 feet AGL
Weather: no significant weather observed at this time

METAR text: UGKO 211100Z 30014KT 230V320 9999 SCT028 BKN048 15/07 Q1014 NOSIG
Conditions at: UGKO (KOPITNARI , GE) observed 1100 UTC 21 April 2019
Temperature: 15.0°C (59°F)
Dewpoint: 7.0°C (45°F) [RH = 59%]
Pressure (altimeter): 29.94 inches Hg (1014.0 mb)
Winds: from the WNW (300 degrees) at 16 MPH (14 knots; 7.2 m/s)
Visibility: 6 or more miles (10+ km)
Ceiling: 4800 feet AGL
Clouds: scattered clouds at 2800 feet AGL
broken clouds at 4800 feet AGL
Weather: no significant weather observed at this time

METAR text: UGKO 211030Z 28010KT 210V330 9999 SCT028 BKN049 16/08 Q1014 R25/09//70 NOSIG
Conditions at: UGKO (KOPITNARI , GE) observed 1030 UTC 21 April 2019
Temperature: 16.0°C (61°F)
Dewpoint: 8.0°C (46°F) [RH = 59%]
Pressure (altimeter): 29.94 inches Hg (1014.0 mb)
Winds: from the W (280 degrees) at 12 MPH (10 knots; 5.1 m/s)
Visibility: 6 or more miles (10+ km)
Ceiling: 4900 feet AGL
Clouds: scattered clouds at 2800 feet AGL
broken clouds at 4900 feet AGL
Weather: no significant weather observed at this time

METAR text: UGKO 211000Z VRB05KT 9999 SCT028 BKN049 15/07 Q1014 NOSIG
Conditions at: UGKO (KOPITNARI , GE) observed 1000 UTC 21 April 2019
Temperature: 15.0°C (59°F)
Dewpoint: 7.0°C (45°F) [RH = 59%]
Pressure (altimeter): 29.94 inches Hg (1014.0 mb)
Winds: variable direction winds at 6 MPH (5 knots; 2.6 m/s)
Visibility: 6 or more miles (10+ km)
Ceiling: 4900 feet AGL
Clouds: scattered clouds at 2800 feet AGL
broken clouds at 4900 feet AGL
Weather: no significant weather observed at this time

METAR text: UGKO 210930Z 28006KT 230V320 9999 SCT028 BKN041 15/07 Q1014 NOSIG
Conditions at: UGKO (KOPITNARI , GE) observed 0930 UTC 21 April 2019
Temperature: 15.0°C (59°F)
Dewpoint: 7.0°C (45°F) [RH = 59%]
Pressure (altimeter): 29.94 inches Hg (1014.0 mb)
Winds: from the W (280 degrees) at 7 MPH (6 knots; 3.1 m/s)
Visibility: 6 or more miles (10+ km)
Ceiling: 4100 feet AGL
Clouds: scattered clouds at 2800 feet AGL
broken clouds at 4100 feet AGL
Weather: no significant weather observed at this time

METAR text: UGKO 210900Z 25007KT 210V290 9999 SCT027 BKN047 15/08 Q1014 NOSIG
Conditions at: UGKO (KOPITNARI , GE) observed 0900 UTC 21 April 2019
Temperature: 15.0°C (59°F)
Dewpoint: 8.0°C (46°F) [RH = 63%]
Pressure (altimeter): 29.94 inches Hg (1014.0 mb)
Winds: from the WSW (250 degrees) at 8 MPH (7 knots; 3.6 m/s)
Visibility: 6 or more miles (10+ km)
Ceiling: 4700 feet AGL
Clouds: scattered clouds at 2700 feet AGL
broken clouds at 4700 feet AGL
Weather: no significant weather observed at this time

METAR text: UGKO 210830Z VRB04KT 9999 SCT028 BKN049 14/08 Q1014 R07/09//70 NOSIG
Conditions at: UGKO (KOPITNARI , GE) observed 0830 UTC 21 April 2019
Temperature: 14.0°C (57°F)
Dewpoint: 8.0°C (46°F) [RH = 67%]
Pressure (altimeter): 29.94 inches Hg (1014.0 mb)
Winds: variable direction winds at 5 MPH (4 knots; 2.1 m/s)
Visibility: 6 or more miles (10+ km)
Ceiling: 4900 feet AGL
Clouds: scattered clouds at 2800 feet AGL
broken clouds at 4900 feet AGL
Weather: no significant weather observed at this time

METAR text: UGKO 210800Z 25008KT 220V350 9999 SCT027 BKN049 14/07 Q1014 R25/09//70 NOSIG
Conditions at: UGKO (KOPITNARI , GE) observed 0800 UTC 21 April 2019
Temperature: 14.0°C (57°F)
Dewpoint: 7.0°C (45°F) [RH = 63%]
Pressure (altimeter): 29.94 inches Hg (1014.0 mb)
Winds: from the WSW (250 degrees) at 9 MPH (8 knots; 4.1 m/s)
Visibility: 6 or more miles (10+ km)
Ceiling: 4900 feet AGL
Clouds: scattered clouds at 2700 feet AGL
broken clouds at 4900 feet AGL
Weather: no significant weather observed at this time

METAR text: UGKO 210730Z 25008KT 210V270 9999 SCT025 BKN045 12/07 Q1014 NOSIG
Conditions at: UGKO (KOPITNARI , GE) observed 0730 UTC 21 April 2019
Temperature: 12.0°C (54°F)
Dewpoint: 7.0°C (45°F) [RH = 71%]
Pressure (altimeter): 29.94 inches Hg (1014.0 mb)
Winds: from the WSW (250 degrees) at 9 MPH (8 knots; 4.1 m/s)
Visibility: 6 or more miles (10+ km)
Ceiling: 4500 feet AGL
Clouds: scattered clouds at 2500 feet AGL
broken clouds at 4500 feet AGL
Weather: no significant weather observed at this time

METAR text: UGKO 210700Z 25008KT 200V260 9999 SCT023 BKN044 12/07 Q1014 NOSIG
Conditions at: UGKO (KOPITNARI , GE) observed 0700 UTC 21 April 2019
Temperature: 12.0°C (54°F)
Dewpoint: 7.0°C (45°F) [RH = 71%]
Pressure (altimeter): 29.94 inches Hg (1014.0 mb)
Winds: from the WSW (250 degrees) at 9 MPH (8 knots; 4.1 m/s)
Visibility: 6 or more miles (10+ km)
Ceiling: 4400 feet AGL
Clouds: scattered clouds at 2300 feet AGL
broken clouds at 4400 feet AGL
Weather: no significant weather observed at this time

METAR text: UGKO 210630Z 25007KT 210V290 9999 SCT025 BKN045 11/07 Q1014 NOSIG
Conditions at: UGKO (KOPITNARI , GE) observed 0630 UTC 21 April 2019
Temperature: 11.0°C (52°F)
Dewpoint: 7.0°C (45°F) [RH = 76%]
Pressure (altimeter): 29.94 inches Hg (1014.0 mb)
Winds: from the WSW (250 degrees) at 8 MPH (7 knots; 3.6 m/s)
Visibility: 6 or more miles (10+ km)
Ceiling: 4500 feet AGL
Clouds: scattered clouds at 2500 feet AGL
broken clouds at 4500 feet AGL
Weather: no significant weather observed at this time

METAR text: UGKO 210600Z 26007KT 230V310 9999 SCT025 BKN045 11/08 Q1014 NOSIG
Conditions at: UGKO (KOPITNARI , GE) observed 0600 UTC 21 April 2019
Temperature: 11.0°C (52°F)
Dewpoint: 8.0°C (46°F) [RH = 82%]
Pressure (altimeter): 29.94 inches Hg (1014.0 mb)
Winds: from the W (260 degrees) at 8 MPH (7 knots; 3.6 m/s)
Visibility: 6 or more miles (10+ km)
Ceiling: 4500 feet AGL
Clouds: scattered clouds at 2500 feet AGL
broken clouds at 4500 feet AGL
Weather: no significant weather observed at this time

METAR text: UGKO 210530Z 27003KT 230V320 9999 BKN046 09/08 Q1014 NOSIG
Conditions at: UGKO (KOPITNARI , GE) observed 0530 UTC 21 April 2019
Temperature: 9.0°C (48°F)
Dewpoint: 8.0°C (46°F) [RH = 93%]
Pressure (altimeter): 29.94 inches Hg (1014.0 mb)
Winds: from the W (270 degrees) at 3 MPH (3 knots; 1.5 m/s)
Visibility: 6 or more miles (10+ km)
Ceiling: 4600 feet AGL
Clouds: broken clouds at 4600 feet AGL
Weather: no significant weather observed at this time

METAR text: UGKO 210500Z 26004KT 9999 BKN046 08/07 Q1014 NOSIG
Conditions at: UGKO (KOPITNARI , GE) observed 0500 UTC 21 April 2019
Temperature: 8.0°C (46°F)
Dewpoint: 7.0°C (45°F) [RH = 93%]
Pressure (altimeter): 29.94 inches Hg (1014.0 mb)
Winds: from the W (260 degrees) at 5 MPH (4 knots; 2.1 m/s)
Visibility: 6 or more miles (10+ km)
Ceiling: 4600 feet AGL
Clouds: broken clouds at 4600 feet AGL
Weather: no significant weather observed at this time

METAR text: UGKO 210430Z 27004KT 9999 BKN047 08/08 Q1014 NOSIG
Conditions at: UGKO (KOPITNARI , GE) observed 0430 UTC 21 April 2019
Temperature: 8.0°C (46°F)
Dewpoint: 8.0°C (46°F) [RH = 100%]
Pressure (altimeter): 29.94 inches Hg (1014.0 mb)
Winds: from the W (270 degrees) at 5 MPH (4 knots; 2.1 m/s)
Visibility: 6 or more miles (10+ km)
Ceiling: 4700 feet AGL
Clouds: broken clouds at 4700 feet AGL
Weather: no significant weather observed at this time

METAR text: UGKO 210400Z VRB02KT 9999 BKN048 07/07 Q1014 NOSIG
Conditions at: UGKO (KOPITNARI , GE) observed 0400 UTC 21 April 2019
Temperature: 7.0°C (45°F)
Dewpoint: 7.0°C (45°F) [RH = 100%]
Pressure (altimeter): 29.94 inches Hg (1014.0 mb)
Winds: variable direction winds at 2 MPH (2 knots; 1.0 m/s)
Visibility: 6 or more miles (10+ km)
Ceiling: 4800 feet AGL
Clouds: broken clouds at 4800 feet AGL
Weather: no significant weather observed at this time

METAR text: UGKO 210330Z 27003KT 9999 BKN047 06/06 Q1014 NOSIG
Conditions at: UGKO (KOPITNARI , GE) observed 0330 UTC 21 April 2019
Temperature: 6.0°C (43°F)
Dewpoint: 6.0°C (43°F) [RH = 100%]
Pressure (altimeter): 29.94 inches Hg (1014.0 mb)
Winds: from the W (270 degrees) at 3 MPH (3 knots; 1.5 m/s)
Visibility: 6 or more miles (10+ km)
Ceiling: 4700 feet AGL
Clouds: broken clouds at 4700 feet AGL
Weather: no significant weather observed at this time

METAR text: UGKO 210300Z 25005KT 9999 BKN044 05/05 Q1014 NOSIG
Conditions at: UGKO (KOPITNARI , GE) observed 0300 UTC 21 April 2019
Temperature: 5.0°C (41°F)
Dewpoint: 5.0°C (41°F) [RH = 100%]
Pressure (altimeter): 29.94 inches Hg (1014.0 mb)
Winds: from the WSW (250 degrees) at 6 MPH (5 knots; 2.6 m/s)
Visibility: 6 or more miles (10+ km)
Ceiling: 4400 feet AGL
Clouds: broken clouds at 4400 feet AGL
Weather: no significant weather observed at this time

METAR text: UGKO 210230Z 25005KT 9999 BKN047 05/05 Q1014 NOSIG
Conditions at: UGKO (KOPITNARI , GE) observed 0230 UTC 21 April 2019
Temperature: 5.0°C (41°F)
Dewpoint: 5.0°C (41°F) [RH = 100%]
Pressure (altimeter): 29.94 inches Hg (1014.0 mb)
Winds: from the WSW (250 degrees) at 6 MPH (5 knots; 2.6 m/s)
Visibility: 6 or more miles (10+ km)
Ceiling: 4700 feet AGL
Clouds: broken clouds at 4700 feet AGL
Weather: no significant weather observed at this time

METAR text: UGKO 210200Z 28004KT 240V320 9999 BKN045 05/05 Q1014 NOSIG
Conditions at: UGKO (KOPITNARI , GE) observed 0200 UTC 21 April 2019
Temperature: 5.0°C (41°F)
Dewpoint: 5.0°C (41°F) [RH = 100%]
Pressure (altimeter): 29.94 inches Hg (1014.0 mb)
Winds: from the W (280 degrees) at 5 MPH (4 knots; 2.1 m/s)
Visibility: 6 or more miles (10+ km)
Ceiling: 4500 feet AGL
Clouds: broken clouds at 4500 feet AGL
Weather: no significant weather observed at this time

METAR text: UGKO 210130Z 31005KT 9999 BKN045 05/05 Q1014 NOSIG
Conditions at: UGKO (KOPITNARI , GE) observed 0130 UTC 21 April 2019
Temperature: 5.0°C (41°F)
Dewpoint: 5.0°C (41°F) [RH = 100%]
Pressure (altimeter): 29.94 inches Hg (1014.0 mb)
Winds: from the NW (310 degrees) at 6 MPH (5 knots; 2.6 m/s)
Visibility: 6 or more miles (10+ km)
Ceiling: 4500 feet AGL
Clouds: broken clouds at 4500 feet AGL
Weather: no significant weather observed at this time

METAR text: UGKO 210100Z 31004KT 9999 BKN046 05/05 Q1014 NOSIG
Conditions at: UGKO (KOPITNARI , GE) observed 0100 UTC 21 April 2019
Temperature: 5.0°C (41°F)
Dewpoint: 5.0°C (41°F) [RH = 100%]
Pressure (altimeter): 29.94 inches Hg (1014.0 mb)
Winds: from the NW (310 degrees) at 5 MPH (4 knots; 2.1 m/s)
Visibility: 6 or more miles (10+ km)
Ceiling: 4600 feet AGL
Clouds: broken clouds at 4600 feet AGL
Weather: no significant weather observed at this time

METAR text: UGKO 210030Z 32003KT 9999 BKN047 05/05 Q1014 NOSIG
Conditions at: UGKO (KOPITNARI , GE) observed 0030 UTC 21 April 2019
Temperature: 5.0°C (41°F)
Dewpoint: 5.0°C (41°F) [RH = 100%]
Pressure (altimeter): 29.94 inches Hg (1014.0 mb)
Winds: from the NW (320 degrees) at 3 MPH (3 knots; 1.5 m/s)
Visibility: 6 or more miles (10+ km)
Ceiling: 4700 feet AGL
Clouds: broken clouds at 4700 feet AGL
Weather: no significant weather observed at this time

METAR text: UGKO 210000Z AUTO 23004KT 6000 BKN100/// 05/05 Q1015 NOSIG
Conditions at: UGKO (KOPITNARI , GE) observed 0000 UTC 21 April 2019
Temperature: 5.0°C (41°F)
Dewpoint: 5.0°C (41°F) [RH = 100%]
Pressure (altimeter): 29.97 inches Hg (1015.0 mb)
Winds: from the SW (230 degrees) at 5 MPH (4 knots; 2.1 m/s)
Visibility: 4 miles ( 6 km)
Ceiling: 10000 feet AGL
Clouds: broken clouds at 10000 feet AGL
Weather: no significant weather observed at this time

METAR text: UGKO 202330Z VRB02KT 9999 BKN047 05/05 Q1015 NOSIG
Conditions at: UGKO (KOPITNARI , GE) observed 2330 UTC 20 April 2019
Temperature: 5.0°C (41°F)
Dewpoint: 5.0°C (41°F) [RH = 100%]
Pressure (altimeter): 29.97 inches Hg (1015.0 mb)
Winds: variable direction winds at 2 MPH (2 knots; 1.0 m/s)
Visibility: 6 or more miles (10+ km)
Ceiling: 4700 feet AGL
Clouds: broken clouds at 4700 feet AGL
Weather: no significant weather observed at this time

METAR text: UGKO 202300Z VRB02KT 9999 BKN047 06/06 Q1015 NOSIG
Conditions at: UGKO (KOPITNARI , GE) observed 2300 UTC 20 April 2019
Temperature: 6.0°C (43°F)
Dewpoint: 6.0°C (43°F) [RH = 100%]
Pressure (altimeter): 29.97 inches Hg (1015.0 mb)
Winds: variable direction winds at 2 MPH (2 knots; 1.0 m/s)
Visibility: 6 or more miles (10+ km)
Ceiling: 4700 feet AGL
Clouds: broken clouds at 4700 feet AGL
Weather: no significant weather observed at this time

METAR text: UGKO 202230Z 07005KT 9999 BKN046 06/06 Q1016 NOSIG
Conditions at: UGKO (KOPITNARI , GE) observed 2230 UTC 20 April 2019
Temperature: 6.0°C (43°F)
Dewpoint: 6.0°C (43°F) [RH = 100%]
Pressure (altimeter): 30.00 inches Hg (1016.0 mb)
Winds: from the ENE (70 degrees) at 6 MPH (5 knots; 2.6 m/s)
Visibility: 6 or more miles (10+ km)
Ceiling: 4600 feet AGL
Clouds: broken clouds at 4600 feet AGL
Weather: no significant weather observed at this time

METAR text: UGKO 202200Z VRB02KT 9999 SCT021 BKN047 06/06 Q1016 NOSIG
Conditions at: UGKO (KOPITNARI , GE) observed 2200 UTC 20 April 2019
Temperature: 6.0°C (43°F)
Dewpoint: 6.0°C (43°F) [RH = 100%]
Pressure (altimeter): 30.00 inches Hg (1016.0 mb)
Winds: variable direction winds at 2 MPH (2 knots; 1.0 m/s)
Visibility: 6 or more miles (10+ km)
Ceiling: 4700 feet AGL
Clouds: scattered clouds at 2100 feet AGL
broken clouds at 4700 feet AGL
Weather: no significant weather observed at this time

METAR text: UGKO 202130Z VRB02KT 9999 BKN043 07/07 Q1017 NOSIG
Conditions at: UGKO (KOPITNARI , GE) observed 2130 UTC 20 April 2019
Temperature: 7.0°C (45°F)
Dewpoint: 7.0°C (45°F) [RH = 100%]
Pressure (altimeter): 30.03 inches Hg (1017.0 mb)
Winds: variable direction winds at 2 MPH (2 knots; 1.0 m/s)
Visibility: 6 or more miles (10+ km)
Ceiling: 4300 feet AGL
Clouds: broken clouds at 4300 feet AGL
Weather: no significant weather observed at this time

METAR text: UGKO 202100Z AUTO 07002KT 9999 BKN042/// 07/07 Q1017 NOSIG
Conditions at: UGKO (KOPITNARI , GE) observed 2100 UTC 20 April 2019
Temperature: 7.0°C (45°F)
Dewpoint: 7.0°C (45°F) [RH = 100%]
Pressure (altimeter): 30.03 inches Hg (1017.0 mb)
Winds: from the ENE (70 degrees) at 2 MPH (2 knots; 1.0 m/s)
Visibility: 6 or more miles (10+ km)
Ceiling: 4200 feet AGL
Clouds: broken clouds at 4200 feet AGL
Weather: no significant weather observed at this time

METAR text: UGKO 202030Z 13001KT 9999 SCT025 OVC043 08/07 Q1018 NOSIG
Conditions at: UGKO (KOPITNARI , GE) observed 2030 UTC 20 April 2019
Temperature: 8.0°C (46°F)
Dewpoint: 7.0°C (45°F) [RH = 93%]
Pressure (altimeter): 30.06 inches Hg (1018.0 mb)
Winds: from the SE (130 degrees) at 1 MPH (1 knots; 0.5 m/s)
Visibility: 6 or more miles (10+ km)
Ceiling: 4300 feet AGL
Clouds: scattered clouds at 2500 feet AGL
overcast cloud deck at 4300 feet AGL
Weather: no significant weather observed at this time

METAR text: UGKO 202000Z VRB02KT 9999 SCT023 OVC046 08/07 Q1018 NOSIG
Conditions at: UGKO (KOPITNARI , GE) observed 2000 UTC 20 April 2019
Temperature: 8.0°C (46°F)
Dewpoint: 7.0°C (45°F) [RH = 93%]
Pressure (altimeter): 30.06 inches Hg (1018.0 mb)
Winds: variable direction winds at 2 MPH (2 knots; 1.0 m/s)
Visibility: 6 or more miles (10+ km)
Ceiling: 4600 feet AGL
Clouds: scattered clouds at 2300 feet AGL
overcast cloud deck at 4600 feet AGL
Weather: no significant weather observed at this time

METAR text: UGKO 201930Z AUTO 14002KT 9999 OVC048/// 07/07 Q1018 NOSIG
Conditions at: UGKO (KOPITNARI , GE) observed 1930 UTC 20 April 2019
Temperature: 7.0°C (45°F)
Dewpoint: 7.0°C (45°F) [RH = 100%]
Pressure (altimeter): 30.06 inches Hg (1018.0 mb)
Winds: from the SE (140 degrees) at 2 MPH (2 knots; 1.0 m/s)
Visibility: 6 or more miles (10+ km)
Ceiling: 4800 feet AGL
Clouds: overcast cloud deck at 4800 feet AGL
Weather: no significant weather observed at this time

METAR text: UGKO 201900Z 22001KT 9999 SCT027 OVC045 07/06 Q1018 NOSIG
Conditions at: UGKO (KOPITNARI , GE) observed 1900 UTC 20 April 2019
Temperature: 7.0°C (45°F)
Dewpoint: 6.0°C (43°F) [RH = 93%]
Pressure (altimeter): 30.06 inches Hg (1018.0 mb)
Winds: from the SW (220 degrees) at 1 MPH (1 knots; 0.5 m/s)
Visibility: 6 or more miles (10+ km)
Ceiling: 4500 feet AGL
Clouds: scattered clouds at 2700 feet AGL
overcast cloud deck at 4500 feet AGL
Weather: no significant weather observed at this time

METAR text: UGKO 201830Z VRB02KT 9999 SCT027 OVC042 08/06 Q1018 NOSIG
Conditions at: UGKO (KOPITNARI , GE) observed 1830 UTC 20 April 2019
Temperature: 8.0°C (46°F)
Dewpoint: 6.0°C (43°F) [RH = 87%]
Pressure (altimeter): 30.06 inches Hg (1018.0 mb)
Winds: variable direction winds at 2 MPH (2 knots; 1.0 m/s)
Visibility: 6 or more miles (10+ km)
Ceiling: 4200 feet AGL
Clouds: scattered clouds at 2700 feet AGL
overcast cloud deck at 4200 feet AGL
Weather: no significant weather observed at this time

METAR text: UGKO 201800Z 23003KT 9999 SCT022 OVC043 09/06 Q1019 NOSIG
Conditions at: UGKO (KOPITNARI , GE) observed 1800 UTC 20 April 2019
Temperature: 9.0°C (48°F)
Dewpoint: 6.0°C (43°F) [RH = 81%]
Pressure (altimeter): 30.09 inches Hg (1019.0 mb)
Winds: from the SW (230 degrees) at 3 MPH (3 knots; 1.5 m/s)
Visibility: 6 or more miles (10+ km)
Ceiling: 4300 feet AGL
Clouds: scattered clouds at 2200 feet AGL
overcast cloud deck at 4300 feet AGL
Weather: no significant weather observed at this time

METAR text: UGKO 201730Z 26004KT 9999 SCT024 OVC047 09/06 Q1019 NOSIG
Conditions at: UGKO (KOPITNARI , GE) observed 1730 UTC 20 April 2019
Temperature: 9.0°C (48°F)
Dewpoint: 6.0°C (43°F) [RH = 81%]
Pressure (altimeter): 30.09 inches Hg (1019.0 mb)
Winds: from the W (260 degrees) at 5 MPH (4 knots; 2.1 m/s)
Visibility: 6 or more miles (10+ km)
Ceiling: 4700 feet AGL
Clouds: scattered clouds at 2400 feet AGL
overcast cloud deck at 4700 feet AGL
Weather: no significant weather observed at this time

METAR text: UGKO 201700Z VRB02KT 9999 SCT026 OVC045 10/07 Q1019 NOSIG
Conditions at: UGKO (KOPITNARI , GE) observed 1700 UTC 20 April 2019
Temperature: 10.0°C (50°F)
Dewpoint: 7.0°C (45°F) [RH = 82%]
Pressure (altimeter): 30.09 inches Hg (1019.0 mb)
Winds: variable direction winds at 2 MPH (2 knots; 1.0 m/s)
Visibility: 6 or more miles (10+ km)
Ceiling: 4500 feet AGL
Clouds: scattered clouds at 2600 feet AGL
overcast cloud deck at 4500 feet AGL
Weather: no significant weather observed at this time

METAR text: UGKO 201630Z VRB02KT 9999 SCT026 OVC043 10/07 Q1018 NOSIG
Conditions at: UGKO (KOPITNARI , GE) observed 1630 UTC 20 April 2019
Temperature: 10.0°C (50°F)
Dewpoint: 7.0°C (45°F) [RH = 82%]
Pressure (altimeter): 30.06 inches Hg (1018.0 mb)
Winds: variable direction winds at 2 MPH (2 knots; 1.0 m/s)
Visibility: 6 or more miles (10+ km)
Ceiling: 4300 feet AGL
Clouds: scattered clouds at 2600 feet AGL
overcast cloud deck at 4300 feet AGL
Weather: no significant weather observed at this time

METAR text: UGKO 201600Z 36003KT 9999 SCT025 OVC045 10/07 Q1018 NOSIG
Conditions at: UGKO (KOPITNARI , GE) observed 1600 UTC 20 April 2019
Temperature: 10.0°C (50°F)
Dewpoint: 7.0°C (45°F) [RH = 82%]
Pressure (altimeter): 30.06 inches Hg (1018.0 mb)
Winds: from the N (360 degrees) at 3 MPH (3 knots; 1.5 m/s)
Visibility: 6 or more miles (10+ km)
Ceiling: 4500 feet AGL
Clouds: scattered clouds at 2500 feet AGL
overcast cloud deck at 4500 feet AGL
Weather: no significant weather observed at this time

METAR text: UGKO 201530Z 35004KT 320V020 9999 SCT024 OVC045 10/07 Q1018 NOSIG
Conditions at: UGKO (KOPITNARI , GE) observed 1530 UTC 20 April 2019
Temperature: 10.0°C (50°F)
Dewpoint: 7.0°C (45°F) [RH = 82%]
Pressure (altimeter): 30.06 inches Hg (1018.0 mb)
Winds: from the N (350 degrees) at 5 MPH (4 knots; 2.1 m/s)
Visibility: 6 or more miles (10+ km)
Ceiling: 4500 feet AGL
Clouds: scattered clouds at 2400 feet AGL
overcast cloud deck at 4500 feet AGL
Weather: no significant weather observed at this time

METAR text: UGKO 201500Z 32005KT 290V350 9999 SCT025 OVC047 11/06 Q1018 NOSIG
Conditions at: UGKO (KOPITNARI , GE) observed 1500 UTC 20 April 2019
Temperature: 11.0°C (52°F)
Dewpoint: 6.0°C (43°F) [RH = 71%]
Pressure (altimeter): 30.06 inches Hg (1018.0 mb)
Winds: from the NW (320 degrees) at 6 MPH (5 knots; 2.6 m/s)
Visibility: 6 or more miles (10+ km)
Ceiling: 4700 feet AGL
Clouds: scattered clouds at 2500 feet AGL
overcast cloud deck at 4700 feet AGL
Weather: no significant weather observed at this time

METAR text: UGKO 201430Z 28007KT 9999 SCT026 OVC045 11/05 Q1018 NOSIG
Conditions at: UGKO (KOPITNARI , GE) observed 1430 UTC 20 April 2019
Temperature: 11.0°C (52°F)
Dewpoint: 5.0°C (41°F) [RH = 66%]
Pressure (altimeter): 30.06 inches Hg (1018.0 mb)
Winds: from the W (280 degrees) at 8 MPH (7 knots; 3.6 m/s)
Visibility: 6 or more miles (10+ km)
Ceiling: 4500 feet AGL
Clouds: scattered clouds at 2600 feet AGL
overcast cloud deck at 4500 feet AGL
Weather: no significant weather observed at this time

Forecast for: UGKO (KOPITNARI , GE)
Text: TAF UGKO 212300Z 2200/2224 27007KT 9999 SCT023 BKN045 TX13/2211Z TN05/2202Z
Forecast period: 0000 UTC 22 April 2019 to 0000 UTC 23 April 2019
Forecast type: FROM: standard forecast or significant change
Winds: from the W (270 degrees) at 8 MPH (7 knots; 3.6 m/s)
Visibility: 6 or more miles 10+ km)
Ceiling: 4500 feet AGL
Clouds: scattered clouds at 2300 feet AGL
broken clouds at 4500 feet AGL
Weather: no significant weather forecast for this period
Text: TEMPO 2210/2216 26017KT
Forecast period: 1000 to 1600 UTC 22 April 2019
Forecast type: TEMPORARY: The following changes expected for less than half the time period
Winds: from the W (260 degrees) at 20 MPH (17 knots; 8.7 m/s)
Visibility: missing
Ceiling: unknown
Clouds: missing
Weather: no significant weather forecast for this period
Text: TEMPO 2216/2220 5000 RA
Forecast period: 1600 to 2000 UTC 22 April 2019
Forecast type: TEMPORARY: The following changes expected for less than half the time period
Visibility: 3 miles (5 km)
Ceiling: unknown
Clouds: missing
Weather: RA  (moderate rain)